Terminal Aerodrome Forecast
Issued by NWS

Home | Current Version | Previous Version | Text Only | Print | Product List | Glossary On
Versions: 1 2 3 4 5 6 7 8 9 10 11 12 13 14 15 16 17 18 19 20 21
000
FTUS42 KTAE 281120
TAFDHN
TAF
KDHN 281120Z 2812/2912 33008KT P6SM SCT250
     FM282000 31010G15KT P6SM SCT100 BKN250
     FM290300 32005KT P6SM BKN100 BKN250
     FM290900 03003KT P6SM SCT250=

USA.gov is the U.S. government's official web portal to all federal, state and local government web resources and services.